sensor_id;sensor_type;location;lat;lon;timestamp;temperature;humidity
48551;DHT22;34397;51.176;6.738;2022-08-11T00:00:16;24.10;35.00
48551;DHT22;34397;51.176;6.738;2022-08-11T00:02:48;24.00;34.90
48551;DHT22;34397;51.176;6.738;2022-08-11T00:05:21;24.00;35.00
48551;DHT22;34397;51.176;6.738;2022-08-11T00:07:53;23.90;35.20
48551;DHT22;34397;51.176;6.738;2022-08-11T00:10:27;23.80;35.10
48551;DHT22;34397;51.176;6.738;2022-08-11T00:13:02;23.80;35.40
48551;DHT22;34397;51.176;6.738;2022-08-11T00:15:38;23.70;35.20
48551;DHT22;34397;51.176;6.738;2022-08-11T00:18:12;23.70;35.90
48551;DHT22;34397;51.176;6.738;2022-08-11T00:20:44;23.60;37.20
48551;DHT22;34397;51.176;6.738;2022-08-11T00:23:16;23.50;37.00
48551;DHT22;34397;51.176;6.738;2022-08-11T00:25:49;23.40;37.20
48551;DHT22;34397;51.176;6.738;2022-08-11T00:28:22;23.30;37.60
48551;DHT22;34397;51.176;6.738;2022-08-11T00:30:57;23.20;37.40
48551;DHT22;34397;51.176;6.738;2022-08-11T00:33:31;23.10;37.70
48551;DHT22;34397;51.176;6.738;2022-08-11T00:36:05;23.10;37.00
48551;DHT22;34397;51.176;6.738;2022-08-11T00:38:39;23.00;36.40
48551;DHT22;34397;51.176;6.738;2022-08-11T00:41:17;22.90;36.90
48551;DHT22;34397;51.176;6.738;2022-08-11T00:46:53;22.80;36.60
48551;DHT22;34397;51.176;6.738;2022-08-11T00:49:32;22.70;36.20
48551;DHT22;34397;51.176;6.738;2022-08-11T00:52:22;22.70;36.20
48551;DHT22;34397;51.176;6.738;2022-08-11T00:55:07;22.70;36.40
48551;DHT22;34397;51.176;6.738;2022-08-11T01:01:25;22.60;36.80
48551;DHT22;34397;51.176;6.738;2022-08-11T01:04:15;22.50;37.00
48551;DHT22;34397;51.176;6.738;2022-08-11T01:07:01;22.50;37.30
48551;DHT22;34397;51.176;6.738;2022-08-11T01:09:58;22.50;37.30
48551;DHT22;34397;51.176;6.738;2022-08-11T01:12:42;22.40;37.20
48551;DHT22;34397;51.176;6.738;2022-08-11T01:18:32;22.30;37.20
48551;DHT22;34397;51.176;6.738;2022-08-11T01:37:01;22.10;37.80
48551;DHT22;34397;51.176;6.738;2022-08-11T01:39:59;22.00;38.10
48551;DHT22;34397;51.176;6.738;2022-08-11T01:42:52;22.00;38.50
48551;DHT22;34397;51.176;6.738;2022-08-11T01:46:00;21.90;38.40
48551;DHT22;34397;51.176;6.738;2022-08-11T01:48:38;21.90;38.30
48551;DHT22;34397;51.176;6.738;2022-08-11T01:54:08;21.80;38.40
48551;DHT22;34397;51.176;6.738;2022-08-11T01:56:48;21.80;38.50
48551;DHT22;34397;51.176;6.738;2022-08-11T01:59:27;21.70;38.40
48551;DHT22;34397;51.176;6.738;2022-08-11T02:05:20;21.60;38.40
48551;DHT22;34397;51.176;6.738;2022-08-11T02:08:02;21.60;38.70
48551;DHT22;34397;51.176;6.738;2022-08-11T02:10:43;21.60;38.80
48551;DHT22;34397;51.176;6.738;2022-08-11T02:13:36;21.50;38.80
48551;DHT22;34397;51.176;6.738;2022-08-11T02:16:15;21.50;39.10
48551;DHT22;34397;51.176;6.738;2022-08-11T02:18:51;21.40;39.20
48551;DHT22;34397;51.176;6.738;2022-08-11T02:21:44;21.40;40.10
48551;DHT22;34397;51.176;6.738;2022-08-11T02:24:40;21.40;39.20
48551;DHT22;34397;51.176;6.738;2022-08-11T02:27:18;21.30;39.40
48551;DHT22;34397;51.176;6.738;2022-08-11T02:29:54;21.30;39.70
48551;DHT22;34397;51.176;6.738;2022-08-11T02:32:35;21.30;40.00
48551;DHT22;34397;51.176;6.738;2022-08-11T02:35:27;21.20;39.70
48551;DHT22;34397;51.176;6.738;2022-08-11T02:38:15;21.20;40.40
48551;DHT22;34397;51.176;6.738;2022-08-11T02:40:49;21.20;40.30
48551;DHT22;34397;51.176;6.738;2022-08-11T02:43:33;21.10;40.10
48551;DHT22;34397;51.176;6.738;2022-08-11T02:46:17;21.10;40.70
48551;DHT22;34397;51.176;6.738;2022-08-11T02:48:54;21.00;40.30
48551;DHT22;34397;51.176;6.738;2022-08-11T02:51:54;21.00;40.40
48551;DHT22;34397;51.176;6.738;2022-08-11T02:54:36;21.00;40.60
48551;DHT22;34397;51.176;6.738;2022-08-11T02:57:12;21.00;40.60
48551;DHT22;34397;51.176;6.738;2022-08-11T02:59:52;20.90;40.40
48551;DHT22;34397;51.176;6.738;2022-08-11T03:05:43;20.90;40.60
48551;DHT22;34397;51.176;6.738;2022-08-11T03:08:30;20.80;41.70
48551;DHT22;34397;51.176;6.738;2022-08-11T03:11:11;20.80;40.70
48551;DHT22;34397;51.176;6.738;2022-08-11T03:14:07;20.70;40.70
48551;DHT22;34397;51.176;6.738;2022-08-11T03:17:12;20.70;41.30
48551;DHT22;34397;51.176;6.738;2022-08-11T03:19:50;20.70;41.10
48551;DHT22;34397;51.176;6.738;2022-08-11T03:22:31;20.70;41.20
48551;DHT22;34397;51.176;6.738;2022-08-11T03:25:08;20.60;41.50
48551;DHT22;34397;51.176;6.738;2022-08-11T03:27:47;20.60;42.00
48551;DHT22;34397;51.176;6.738;2022-08-11T03:30:22;20.60;41.40
48551;DHT22;34397;51.176;6.738;2022-08-11T03:33:07;20.50;42.50
48551;DHT22;34397;51.176;6.738;2022-08-11T03:36:12;20.50;41.50
48551;DHT22;34397;51.176;6.738;2022-08-11T03:38:58;20.50;42.60
48551;DHT22;34397;51.176;6.738;2022-08-11T03:41:41;20.40;41.40
48551;DHT22;34397;51.176;6.738;2022-08-11T03:44:31;20.30;41.40
48551;DHT22;34397;51.176;6.738;2022-08-11T03:47:21;20.30;41.80
48551;DHT22;34397;51.176;6.738;2022-08-11T03:50:11;20.30;42.60
48551;DHT22;34397;51.176;6.738;2022-08-11T03:53:08;20.30;43.50
48551;DHT22;34397;51.176;6.738;2022-08-11T03:59:05;20.40;43.00
48551;DHT22;34397;51.176;6.738;2022-08-11T04:01:56;20.40;42.50
48551;DHT22;34397;51.176;6.738;2022-08-11T04:04:47;20.40;42.50
48551;DHT22;34397;51.176;6.738;2022-08-11T04:07:34;20.40;43.40
48551;DHT22;34397;51.176;6.738;2022-08-11T04:20:28;20.40;42.50
48551;DHT22;34397;51.176;6.738;2022-08-11T04:23:26;20.40;42.50
48551;DHT22;34397;51.176;6.738;2022-08-11T04:26:16;20.40;43.20
48551;DHT22;34397;51.176;6.738;2022-08-11T04:29:13;20.40;42.80
48551;DHT22;34397;51.176;6.738;2022-08-11T04:31:59;20.30;42.70
48551;DHT22;34397;51.176;6.738;2022-08-11T04:34:35;20.30;42.70
48551;DHT22;34397;51.176;6.738;2022-08-11T04:37:16;20.30;43.80
48551;DHT22;34397;51.176;6.738;2022-08-11T04:46:33;20.20;43.20
48551;DHT22;34397;51.176;6.738;2022-08-11T04:49:24;20.20;43.20
48551;DHT22;34397;51.176;6.738;2022-08-11T04:52:27;20.20;43.50
48551;DHT22;34397;51.176;6.738;2022-08-11T04:55:40;20.20;43.40
48551;DHT22;34397;51.176;6.738;2022-08-11T04:58:48;20.10;43.20
48551;DHT22;34397;51.176;6.738;2022-08-11T05:01:49;20.10;43.60
48551;DHT22;34397;51.176;6.738;2022-08-11T05:04:40;20.10;43.40
48551;DHT22;34397;51.176;6.738;2022-08-11T05:07:48;20.10;43.80
48551;DHT22;34397;51.176;6.738;2022-08-11T05:10:50;20.10;44.70
48551;DHT22;34397;51.176;6.738;2022-08-11T05:13:27;20.10;43.80
48551;DHT22;34397;51.176;6.738;2022-08-11T05:16:18;20.10;43.80
48551;DHT22;34397;51.176;6.738;2022-08-11T05:19:13;20.10;43.70
48551;DHT22;34397;51.176;6.738;2022-08-11T05:22:05;20.00;43.80
48551;DHT22;34397;51.176;6.738;2022-08-11T05:24:58;20.10;44.00
48551;DHT22;34397;51.176;6.738;2022-08-11T05:27:52;20.10;43.80
48551;DHT22;34397;51.176;6.738;2022-08-11T05:30:47;20.10;44.10
48551;DHT22;34397;51.176;6.738;2022-08-11T05:33:41;20.20;44.60
48551;DHT22;34397;51.176;6.738;2022-08-11T05:36:35;20.20;44.70
48551;DHT22;34397;51.176;6.738;2022-08-11T05:39:14;20.20;44.70
48551;DHT22;34397;51.176;6.738;2022-08-11T05:42:05;20.30;45.00
48551;DHT22;34397;51.176;6.738;2022-08-11T05:44:58;20.30;45.20
48551;DHT22;34397;51.176;6.738;2022-08-11T05:47:49;20.40;45.60
48551;DHT22;34397;51.176;6.738;2022-08-11T05:50:39;20.50;45.60
48551;DHT22;34397;51.176;6.738;2022-08-11T05:53:28;20.50;45.60
48551;DHT22;34397;51.176;6.738;2022-08-11T05:56:18;20.50;45.60
48551;DHT22;34397;51.176;6.738;2022-08-11T05:58:50;20.60;45.70
48551;DHT22;34397;51.176;6.738;2022-08-11T06:01:25;20.70;45.60
48551;DHT22;34397;51.176;6.738;2022-08-11T06:04:04;20.70;45.50
48551;DHT22;34397;51.176;6.738;2022-08-11T06:06:47;20.80;45.30
48551;DHT22;34397;51.176;6.738;2022-08-11T06:09:26;20.90;45.20
48551;DHT22;34397;51.176;6.738;2022-08-11T06:12:00;20.90;44.90
48551;DHT22;34397;51.176;6.738;2022-08-11T06:14:40;21.00;44.70
48551;DHT22;34397;51.176;6.738;2022-08-11T06:17:20;21.10;44.50
48551;DHT22;34397;51.176;6.738;2022-08-11T06:19:57;21.20;44.40
48551;DHT22;34397;51.176;6.738;2022-08-11T06:22:30;21.20;44.20
48551;DHT22;34397;51.176;6.738;2022-08-11T06:25:03;21.30;44.00
48551;DHT22;34397;51.176;6.738;2022-08-11T06:27:37;21.40;44.00
48551;DHT22;34397;51.176;6.738;2022-08-11T06:30:09;21.40;43.60
48551;DHT22;34397;51.176;6.738;2022-08-11T06:32:45;21.50;43.40
48551;DHT22;34397;51.176;6.738;2022-08-11T06:35:18;21.50;43.10
48551;DHT22;34397;51.176;6.738;2022-08-11T06:38:07;21.60;42.70
48551;DHT22;34397;51.176;6.738;2022-08-11T06:40:42;21.60;42.50
48551;DHT22;34397;51.176;6.738;2022-08-11T06:43:50;21.70;42.30
48551;DHT22;34397;51.176;6.738;2022-08-11T06:46:26;21.80;42.10
48551;DHT22;34397;51.176;6.738;2022-08-11T06:49:01;21.80;41.80
48551;DHT22;34397;51.176;6.738;2022-08-11T06:51:34;21.80;41.60
48551;DHT22;34397;51.176;6.738;2022-08-11T06:54:09;21.90;41.50
48551;DHT22;34397;51.176;6.738;2022-08-11T06:56:44;22.00;41.40
48551;DHT22;34397;51.176;6.738;2022-08-11T06:59:34;22.00;41.30
48551;DHT22;34397;51.176;6.738;2022-08-11T07:02:26;22.10;40.80
48551;DHT22;34397;51.176;6.738;2022-08-11T07:05:01;22.20;40.80
48551;DHT22;34397;51.176;6.738;2022-08-11T07:07:46;22.20;41.20
48551;DHT22;34397;51.176;6.738;2022-08-11T07:10:56;22.30;40.50
48551;DHT22;34397;51.176;6.738;2022-08-11T07:14:07;22.30;39.00
48551;DHT22;34397;51.176;6.738;2022-08-11T07:16:59;22.30;39.90
48551;DHT22;34397;51.176;6.738;2022-08-11T07:19:31;22.40;39.80
48551;DHT22;34397;51.176;6.738;2022-08-11T07:22:22;22.40;39.70
48551;DHT22;34397;51.176;6.738;2022-08-11T07:25:13;22.50;39.60
48551;DHT22;34397;51.176;6.738;2022-08-11T07:28:04;22.60;39.00
48551;DHT22;34397;51.176;6.738;2022-08-11T07:30:57;22.70;39.00
48551;DHT22;34397;51.176;6.738;2022-08-11T07:33:38;22.70;38.90
48551;DHT22;34397;51.176;6.738;2022-08-11T07:36:13;22.80;38.80
48551;DHT22;34397;51.176;6.738;2022-08-11T07:38:47;22.80;38.50
48551;DHT22;34397;51.176;6.738;2022-08-11T07:41:21;22.90;38.50
48551;DHT22;34397;51.176;6.738;2022-08-11T07:43:54;23.00;38.20
48551;DHT22;34397;51.176;6.738;2022-08-11T07:46:38;23.00;38.20
48551;DHT22;34397;51.176;6.738;2022-08-11T07:49:30;23.10;38.30
48551;DHT22;34397;51.176;6.738;2022-08-11T07:52:23;23.10;38.00
48551;DHT22;34397;51.176;6.738;2022-08-11T07:55:03;23.20;37.50
48551;DHT22;34397;51.176;6.738;2022-08-11T07:57:36;23.30;37.70
48551;DHT22;34397;51.176;6.738;2022-08-11T08:00:27;23.30;37.30
48551;DHT22;34397;51.176;6.738;2022-08-11T08:03:17;23.40;36.90
48551;DHT22;34397;51.176;6.738;2022-08-11T08:06:06;23.40;37.00
48551;DHT22;34397;51.176;6.738;2022-08-11T08:08:56;23.50;36.70
48551;DHT22;34397;51.176;6.738;2022-08-11T08:11:46;23.50;36.50
48551;DHT22;34397;51.176;6.738;2022-08-11T08:14:36;23.60;36.50
48551;DHT22;34397;51.176;6.738;2022-08-11T08:17:26;23.70;36.30
48551;DHT22;34397;51.176;6.738;2022-08-11T08:20:16;23.70;35.90
48551;DHT22;34397;51.176;6.738;2022-08-11T08:22:49;23.80;35.50
48551;DHT22;34397;51.176;6.738;2022-08-11T08:25:26;23.90;35.80
48551;DHT22;34397;51.176;6.738;2022-08-11T08:28:01;23.90;35.60
48551;DHT22;34397;51.176;6.738;2022-08-11T08:30:35;24.00;35.90
48551;DHT22;34397;51.176;6.738;2022-08-11T08:33:21;24.00;32.90
48551;DHT22;34397;51.176;6.738;2022-08-11T08:35:54;24.10;34.70
48551;DHT22;34397;51.176;6.738;2022-08-11T08:38:41;24.10;34.50
48551;DHT22;34397;51.176;6.738;2022-08-11T08:41:13;24.20;34.70
48551;DHT22;34397;51.176;6.738;2022-08-11T08:43:50;24.30;34.60
48551;DHT22;34397;51.176;6.738;2022-08-11T08:46:24;24.30;34.80
48551;DHT22;34397;51.176;6.738;2022-08-11T08:48:58;24.40;34.30
48551;DHT22;34397;51.176;6.738;2022-08-11T08:51:30;24.40;34.30
48551;DHT22;34397;51.176;6.738;2022-08-11T08:54:07;24.50;34.30
48551;DHT22;34397;51.176;6.738;2022-08-11T08:56:41;24.50;34.10
48551;DHT22;34397;51.176;6.738;2022-08-11T08:59:16;24.60;34.20
48551;DHT22;34397;51.176;6.738;2022-08-11T09:01:48;24.70;34.20
48551;DHT22;34397;51.176;6.738;2022-08-11T09:04:23;24.70;33.00
48551;DHT22;34397;51.176;6.738;2022-08-11T09:06:56;24.70;31.60
48551;DHT22;34397;51.176;6.738;2022-08-11T09:09:29;24.70;33.20
48551;DHT22;34397;51.176;6.738;2022-08-11T09:12:02;24.70;33.70
48551;DHT22;34397;51.176;6.738;2022-08-11T09:14:37;24.80;33.60
48551;DHT22;34397;51.176;6.738;2022-08-11T09:17:27;24.90;33.70
48551;DHT22;34397;51.176;6.738;2022-08-11T09:20:03;25.00;33.80
48551;DHT22;34397;51.176;6.738;2022-08-11T09:22:37;25.00;33.60
48551;DHT22;34397;51.176;6.738;2022-08-11T09:25:29;25.10;33.40
48551;DHT22;34397;51.176;6.738;2022-08-11T09:28:20;25.10;33.00
48551;DHT22;34397;51.176;6.738;2022-08-11T09:30:54;25.20;33.00
48551;DHT22;34397;51.176;6.738;2022-08-11T09:33:26;25.30;33.20
48551;DHT22;34397;51.176;6.738;2022-08-11T09:35:59;25.30;32.70
48551;DHT22;34397;51.176;6.738;2022-08-11T09:38:53;25.40;33.00
48551;DHT22;34397;51.176;6.738;2022-08-11T09:41:42;25.50;32.10
48551;DHT22;34397;51.176;6.738;2022-08-11T09:44:14;25.60;32.50
48551;DHT22;34397;51.176;6.738;2022-08-11T09:47:05;25.70;32.70
48551;DHT22;34397;51.176;6.738;2022-08-11T09:49:44;25.80;32.10
48551;DHT22;34397;51.176;6.738;2022-08-11T09:52:18;25.90;31.80
48551;DHT22;34397;51.176;6.738;2022-08-11T09:54:51;26.00;31.60
48551;DHT22;34397;51.176;6.738;2022-08-11T09:57:23;26.10;31.10
48551;DHT22;34397;51.176;6.738;2022-08-11T10:00:13;26.30;30.80
48551;DHT22;34397;51.176;6.738;2022-08-11T10:02:47;26.60;29.90
48551;DHT22;34397;51.176;6.738;2022-08-11T10:05:20;27.00;31.10
48551;DHT22;34397;51.176;6.738;2022-08-11T10:08:11;27.50;30.20
48551;DHT22;34397;51.176;6.738;2022-08-11T10:10:43;28.20;28.50
48551;DHT22;34397;51.176;6.738;2022-08-11T10:13:17;28.80;27.80
48551;DHT22;34397;51.176;6.738;2022-08-11T10:15:55;29.30;27.30
48551;DHT22;34397;51.176;6.738;2022-08-11T10:18:32;30.00;27.70
48551;DHT22;34397;51.176;6.738;2022-08-11T10:21:23;30.50;27.60
48551;DHT22;34397;51.176;6.738;2022-08-11T10:23:58;31.20;27.20
48551;DHT22;34397;51.176;6.738;2022-08-11T10:26:48;31.70;25.60
48551;DHT22;34397;51.176;6.738;2022-08-11T10:29:23;32.30;25.80
48551;DHT22;34397;51.176;6.738;2022-08-11T10:32:17;32.80;25.30
48551;DHT22;34397;51.176;6.738;2022-08-11T10:35:09;33.30;25.50
48551;DHT22;34397;51.176;6.738;2022-08-11T10:37:44;33.70;24.90
48551;DHT22;34397;51.176;6.738;2022-08-11T10:40:17;34.10;25.20
48551;DHT22;34397;51.176;6.738;2022-08-11T10:42:53;34.40;25.60
48551;DHT22;34397;51.176;6.738;2022-08-11T10:45:36;34.60;24.50
48551;DHT22;34397;51.176;6.738;2022-08-11T10:48:27;35.00;25.50
48551;DHT22;34397;51.176;6.738;2022-08-11T10:51:01;35.40;24.60
48551;DHT22;34397;51.176;6.738;2022-08-11T10:53:47;35.60;24.10
48551;DHT22;34397;51.176;6.738;2022-08-11T10:56:39;35.90;24.40
48551;DHT22;34397;51.176;6.738;2022-08-11T10:59:28;36.10;23.60
48551;DHT22;34397;51.176;6.738;2022-08-11T11:02:00;36.40;23.40
48551;DHT22;34397;51.176;6.738;2022-08-11T11:07:36;36.80;23.60
48551;DHT22;34397;51.176;6.738;2022-08-11T11:10:09;37.00;23.90
48551;DHT22;34397;51.176;6.738;2022-08-11T11:12:42;37.20;23.20
48551;DHT22;34397;51.176;6.738;2022-08-11T11:15:33;37.40;23.40
48551;DHT22;34397;51.176;6.738;2022-08-11T11:18:24;37.60;22.90
48551;DHT22;34397;51.176;6.738;2022-08-11T11:20:59;37.80;23.70
48551;DHT22;34397;51.176;6.738;2022-08-11T11:23:38;37.80;22.40
48551;DHT22;34397;51.176;6.738;2022-08-11T11:26:22;37.60;22.40
48551;DHT22;34397;51.176;6.738;2022-08-11T11:29:05;37.70;22.60
48551;DHT22;34397;51.176;6.738;2022-08-11T11:31:58;37.90;22.60
48551;DHT22;34397;51.176;6.738;2022-08-11T11:34:46;37.70;22.40
48551;DHT22;34397;51.176;6.738;2022-08-11T11:37:28;37.80;23.10
48551;DHT22;34397;51.176;6.738;2022-08-11T11:40:05;37.90;23.00
48551;DHT22;34397;51.176;6.738;2022-08-11T11:42:40;38.20;22.30
48551;DHT22;34397;51.176;6.738;2022-08-11T11:45:14;38.40;21.80
48551;DHT22;34397;51.176;6.738;2022-08-11T11:47:48;38.60;22.80
48551;DHT22;34397;51.176;6.738;2022-08-11T11:50:22;38.80;21.80
48551;DHT22;34397;51.176;6.738;2022-08-11T11:52:55;39.00;22.50
48551;DHT22;34397;51.176;6.738;2022-08-11T11:55:30;39.20;22.30
48551;DHT22;34397;51.176;6.738;2022-08-11T11:58:02;39.40;21.80
48551;DHT22;34397;51.176;6.738;2022-08-11T12:00:52;39.60;22.20
48551;DHT22;34397;51.176;6.738;2022-08-11T12:03:42;39.70;22.20
48551;DHT22;34397;51.176;6.738;2022-08-11T12:06:15;39.90;21.60
48551;DHT22;34397;51.176;6.738;2022-08-11T12:08:49;40.00;22.30
48551;DHT22;34397;51.176;6.738;2022-08-11T12:11:27;40.00;21.50
48551;DHT22;34397;51.176;6.738;2022-08-11T12:14:17;40.00;21.80
48551;DHT22;34397;51.176;6.738;2022-08-11T12:16:50;40.00;22.00
48551;DHT22;34397;51.176;6.738;2022-08-11T12:19:23;40.00;21.90
48551;DHT22;34397;51.176;6.738;2022-08-11T12:21:57;40.00;21.40
48551;DHT22;34397;51.176;6.738;2022-08-11T12:24:47;40.00;21.30
48551;DHT22;34397;51.176;6.738;2022-08-11T12:27:38;40.00;21.80
48551;DHT22;34397;51.176;6.738;2022-08-11T12:30:11;40.00;22.20
48551;DHT22;34397;51.176;6.738;2022-08-11T12:32:43;40.10;21.90
48551;DHT22;34397;51.176;6.738;2022-08-11T12:35:15;40.10;21.70
48551;DHT22;34397;51.176;6.738;2022-08-11T12:37:47;40.20;21.00
48551;DHT22;34397;51.176;6.738;2022-08-11T12:40:23;40.30;21.20
48551;DHT22;34397;51.176;6.738;2022-08-11T12:43:11;40.40;20.90
48551;DHT22;34397;51.176;6.738;2022-08-11T12:46:03;40.30;21.80
48551;DHT22;34397;51.176;6.738;2022-08-11T12:48:40;40.40;21.00
48551;DHT22;34397;51.176;6.738;2022-08-11T12:51:33;40.50;22.00
48551;DHT22;34397;51.176;6.738;2022-08-11T12:54:24;40.50;21.60
48551;DHT22;34397;51.176;6.738;2022-08-11T12:56:58;40.50;21.60
48551;DHT22;34397;51.176;6.738;2022-08-11T12:59:50;40.60;21.50
48551;DHT22;34397;51.176;6.738;2022-08-11T13:02:40;40.60;21.50
48551;DHT22;34397;51.176;6.738;2022-08-11T13:05:29;40.70;21.30
48551;DHT22;34397;51.176;6.738;2022-08-11T13:08:02;40.70;21.10
48551;DHT22;34397;51.176;6.738;2022-08-11T13:10:35;40.80;20.50
48551;DHT22;34397;51.176;6.738;2022-08-11T13:13:25;40.80;20.80
48551;DHT22;34397;51.176;6.738;2022-08-11T13:15:58;40.70;21.20
48551;DHT22;34397;51.176;6.738;2022-08-11T13:18:30;40.80;21.30
48551;DHT22;34397;51.176;6.738;2022-08-11T13:21:04;40.70;21.60
48551;DHT22;34397;51.176;6.738;2022-08-11T13:23:36;40.60;20.90
48551;DHT22;34397;51.176;6.738;2022-08-11T13:26:08;40.40;21.80
48551;DHT22;34397;51.176;6.738;2022-08-11T13:28:40;40.40;21.30
48551;DHT22;34397;51.176;6.738;2022-08-11T13:31:14;40.40;21.20
48551;DHT22;34397;51.176;6.738;2022-08-11T13:33:46;40.50;21.60
48551;DHT22;34397;51.176;6.738;2022-08-11T13:36:21;40.60;21.40
48551;DHT22;34397;51.176;6.738;2022-08-11T13:38:57;40.70;21.00
48551;DHT22;34397;51.176;6.738;2022-08-11T13:41:29;40.80;20.90
48551;DHT22;34397;51.176;6.738;2022-08-11T13:44:12;40.90;21.00
48551;DHT22;34397;51.176;6.738;2022-08-11T13:46:47;41.00;20.70
48551;DHT22;34397;51.176;6.738;2022-08-11T13:49:20;41.10;21.30
48551;DHT22;34397;51.176;6.738;2022-08-11T13:51:52;41.10;20.70
48551;DHT22;34397;51.176;6.738;2022-08-11T13:54:25;41.10;20.90
48551;DHT22;34397;51.176;6.738;2022-08-11T13:56:59;41.10;20.50
48551;DHT22;34397;51.176;6.738;2022-08-11T13:59:31;41.10;20.80
48551;DHT22;34397;51.176;6.738;2022-08-11T14:02:05;41.10;20.70
48551;DHT22;34397;51.176;6.738;2022-08-11T14:04:39;41.10;20.90
48551;DHT22;34397;51.176;6.738;2022-08-11T14:07:12;41.10;20.60
48551;DHT22;34397;51.176;6.738;2022-08-11T14:09:44;41.00;21.20
48551;DHT22;34397;51.176;6.738;2022-08-11T14:12:19;41.00;21.50
48551;DHT22;34397;51.176;6.738;2022-08-11T14:15:13;41.00;21.10
48551;DHT22;34397;51.176;6.738;2022-08-11T14:17:52;41.00;21.00
48551;DHT22;34397;51.176;6.738;2022-08-11T14:20:26;41.00;20.50
48551;DHT22;34397;51.176;6.738;2022-08-11T14:23:22;41.00;21.00
48551;DHT22;34397;51.176;6.738;2022-08-11T14:25:55;41.00;20.80
48551;DHT22;34397;51.176;6.738;2022-08-11T14:28:45;41.00;20.80
48551;DHT22;34397;51.176;6.738;2022-08-11T14:31:17;41.00;21.20
48551;DHT22;34397;51.176;6.738;2022-08-11T14:33:52;40.80;21.30
48551;DHT22;34397;51.176;6.738;2022-08-11T14:36:25;40.80;21.10
48551;DHT22;34397;51.176;6.738;2022-08-11T14:38:57;40.70;20.60
48551;DHT22;34397;51.176;6.738;2022-08-11T14:41:29;40.60;20.70
48551;DHT22;34397;51.176;6.738;2022-08-11T14:44:19;40.50;20.60
48551;DHT22;34397;51.176;6.738;2022-08-11T14:47:09;40.40;20.10
48551;DHT22;34397;51.176;6.738;2022-08-11T14:49:45;40.30;20.80
48551;DHT22;34397;51.176;6.738;2022-08-11T14:52:17;40.20;20.90
48551;DHT22;34397;51.176;6.738;2022-08-11T14:54:50;40.10;20.70
48551;DHT22;34397;51.176;6.738;2022-08-11T14:57:40;39.90;21.00
48551;DHT22;34397;51.176;6.738;2022-08-11T15:00:14;39.80;21.10
48551;DHT22;34397;51.176;6.738;2022-08-11T15:02:47;39.60;21.60
48551;DHT22;34397;51.176;6.738;2022-08-11T15:05:47;39.50;21.30
48551;DHT22;34397;51.176;6.738;2022-08-11T15:08:20;39.30;21.60
48551;DHT22;34397;51.176;6.738;2022-08-11T15:11:13;39.00;21.60
48551;DHT22;34397;51.176;6.738;2022-08-11T15:14:04;38.80;21.70
48551;DHT22;34397;51.176;6.738;2022-08-11T15:16:39;38.60;21.80
48551;DHT22;34397;51.176;6.738;2022-08-11T15:19:30;38.30;22.00
48551;DHT22;34397;51.176;6.738;2022-08-11T15:22:04;38.20;21.70
48551;DHT22;34397;51.176;6.738;2022-08-11T15:24:53;38.00;21.80
48551;DHT22;34397;51.176;6.738;2022-08-11T15:27:25;37.90;21.90
48551;DHT22;34397;51.176;6.738;2022-08-11T15:30:16;37.80;22.20
48551;DHT22;34397;51.176;6.738;2022-08-11T15:33:06;37.70;21.90
48551;DHT22;34397;51.176;6.738;2022-08-11T15:35:56;37.50;22.30
48551;DHT22;34397;51.176;6.738;2022-08-11T15:38:48;37.40;21.80
48551;DHT22;34397;51.176;6.738;2022-08-11T15:41:27;37.30;21.80
48551;DHT22;34397;51.176;6.738;2022-08-11T15:44:19;36.90;22.30
48551;DHT22;34397;51.176;6.738;2022-08-11T15:47:25;36.60;22.80
48551;DHT22;34397;51.176;6.738;2022-08-11T15:50:00;36.50;22.80
48551;DHT22;34397;51.176;6.738;2022-08-11T15:52:34;36.40;23.10
48551;DHT22;34397;51.176;6.738;2022-08-11T15:55:15;36.40;23.10
48551;DHT22;34397;51.176;6.738;2022-08-11T15:57:49;36.40;23.00
48551;DHT22;34397;51.176;6.738;2022-08-11T16:00:39;36.40;23.20
48551;DHT22;34397;51.176;6.738;2022-08-11T16:03:29;36.30;23.30
48551;DHT22;34397;51.176;6.738;2022-08-11T16:06:21;36.30;23.20
48551;DHT22;34397;51.176;6.738;2022-08-11T16:08:53;36.20;23.20
48551;DHT22;34397;51.176;6.738;2022-08-11T16:11:28;36.20;23.90
48551;DHT22;34397;51.176;6.738;2022-08-11T16:14:02;36.10;23.40
48551;DHT22;34397;51.176;6.738;2022-08-11T16:16:52;36.00;23.50
48551;DHT22;34397;51.176;6.738;2022-08-11T16:19:25;36.00;23.50
48551;DHT22;34397;51.176;6.738;2022-08-11T16:22:05;35.90;23.40
48551;DHT22;34397;51.176;6.738;2022-08-11T16:24:41;35.80;23.30
48551;DHT22;34397;51.176;6.738;2022-08-11T16:27:16;35.70;23.30
48551;DHT22;34397;51.176;6.738;2022-08-11T16:29:48;35.60;23.50
48551;DHT22;34397;51.176;6.738;2022-08-11T16:32:22;35.60;23.60
48551;DHT22;34397;51.176;6.738;2022-08-11T16:34:56;35.50;23.40
48551;DHT22;34397;51.176;6.738;2022-08-11T16:37:48;35.40;23.60
48551;DHT22;34397;51.176;6.738;2022-08-11T16:40:38;35.30;23.70
48551;DHT22;34397;51.176;6.738;2022-08-11T16:43:12;35.20;23.80
48551;DHT22;34397;51.176;6.738;2022-08-11T16:46:04;35.10;23.80
48551;DHT22;34397;51.176;6.738;2022-08-11T16:49:03;35.10;24.00
48551;DHT22;34397;51.176;6.738;2022-08-11T16:51:35;35.00;23.90
48551;DHT22;34397;51.176;6.738;2022-08-11T16:54:07;35.00;23.80
48551;DHT22;34397;51.176;6.738;2022-08-11T16:56:41;34.90;24.00
48551;DHT22;34397;51.176;6.738;2022-08-11T16:59:16;34.80;24.00
48551;DHT22;34397;51.176;6.738;2022-08-11T17:01:50;34.80;23.90
48551;DHT22;34397;51.176;6.738;2022-08-11T17:04:27;34.70;24.00
48551;DHT22;34397;51.176;6.738;2022-08-11T17:07:19;34.60;24.00
48551;DHT22;34397;51.176;6.738;2022-08-11T17:10:14;34.50;24.20
48551;DHT22;34397;51.176;6.738;2022-08-11T17:13:05;34.40;24.30
48551;DHT22;34397;51.176;6.738;2022-08-11T17:15:43;34.30;24.20
48551;DHT22;34397;51.176;6.738;2022-08-11T17:18:37;34.20;24.10
48551;DHT22;34397;51.176;6.738;2022-08-11T17:21:14;34.10;24.30
48551;DHT22;34397;51.176;6.738;2022-08-11T17:23:50;34.00;24.40
48551;DHT22;34397;51.176;6.738;2022-08-11T17:26:26;34.00;24.50
48551;DHT22;34397;51.176;6.738;2022-08-11T17:29:22;33.90;24.60
48551;DHT22;34397;51.176;6.738;2022-08-11T17:31:58;33.90;24.70
48551;DHT22;34397;51.176;6.738;2022-08-11T17:34:49;33.70;25.30
48551;DHT22;34397;51.176;6.738;2022-08-11T17:37:40;33.70;25.20
48551;DHT22;34397;51.176;6.738;2022-08-11T17:40:13;33.50;25.80
48551;DHT22;34397;51.176;6.738;2022-08-11T17:42:48;33.30;25.90
48551;DHT22;34397;51.176;6.738;2022-08-11T17:45:38;33.10;26.00
48551;DHT22;34397;51.176;6.738;2022-08-11T17:48:30;32.90;26.00
48551;DHT22;34397;51.176;6.738;2022-08-11T17:51:04;32.70;26.20
48551;DHT22;34397;51.176;6.738;2022-08-11T17:53:39;32.60;26.20
48551;DHT22;34397;51.176;6.738;2022-08-11T17:56:30;32.40;26.30
48551;DHT22;34397;51.176;6.738;2022-08-11T17:59:20;32.30;26.30